Time;durP1;ratioP1;P1;durP2;ratioP2;P2;SDS_P1;SDS_P2;PMS_P1;PMS_P2;Temp;Humidity;BMP_temperature;BMP_pressure;BME280_temperature;BME280_humidity;BME280_pressure;Samples;Min_cycle;Max_cycle;Signal;HPM_P1;HPM_P2
2022/07/21 00:01:07;;;;;;;6.97;3.83;;;;;;;28.52;43.24;101546.63;5013390;28;20446;-67
2022/07/21 00:03:33;;;;;;;7.13;3.78;;;;;;;28.50;43.25;101545.19;5013358;28;20056;-67
2022/07/21 00:05:58;;;;;;;5.97;3.78;;;;;;;28.50;43.15;101539.66;5013329;28;20045;-68
2022/07/21 00:08:24;;;;;;;8.55;3.55;;;;;;;28.47;42.11;101534.59;5013153;28;20034;-68
2022/07/21 00:10:49;;;;;;;4.32;3.38;;;;;;;28.45;43.28;101543.09;5013160;28;20038;-67
2022/07/21 00:13:14;;;;;;;5.30;3.17;;;;;;;28.47;43.08;101540.13;5013099;28;20037;-67
2022/07/21 00:15:40;;;;;;;5.75;3.58;;;;;;;28.46;42.76;101530.16;5013216;28;20468;-65
2022/07/21 00:18:06;;;;;;;5.00;3.58;;;;;;;28.48;42.57;101533.50;5014205;28;20032;-67
2022/07/21 00:20:32;;;;;;;5.40;3.65;;;;;;;28.49;43.52;101537.97;4996556;28;20034;-66
2022/07/21 00:22:57;;;;;;;6.78;4.38;;;;;;;28.51;43.52;101530.31;5013016;28;20395;-66
2022/07/21 00:25:23;;;;;;;7.22;4.63;;;;;;;28.48;42.84;101528.00;5029018;28;20057;-66
2022/07/21 00:27:48;;;;;;;6.93;4.28;;;;;;;28.53;43.07;101534.50;5012983;28;20040;-66
2022/07/21 00:30:15;;;;;;;6.85;3.90;;;;;;;28.51;43.33;101535.81;5012710;28;20025;-66
2022/07/21 00:32:40;;;;;;;8.65;4.22;;;;;;;28.47;43.17;101529.94;5029235;28;20080;-67
2022/07/21 00:35:07;;;;;;;5.53;4.30;;;;;;;28.46;43.59;101528.25;5012876;28;20034;-66
2022/07/21 00:37:33;;;;;;;6.38;4.38;;;;;;;28.44;43.28;101526.78;5029049;28;20553;-66
2022/07/21 00:39:59;;;;;;;7.20;4.10;;;;;;;28.41;43.43;101536.38;5012716;28;20030;-67
2022/07/21 00:42:28;;;;;;;5.07;4.03;;;;;;;28.40;43.78;101536.56;5012732;28;20025;-66
2022/07/21 00:44:54;;;;;;;4.85;4.05;;;;;;;28.37;43.60;101534.28;5012752;28;20025;-67
2022/07/21 00:47:20;;;;;;;10.10;4.32;;;;;;;28.35;43.25;101530.91;5012511;28;20030;-66
2022/07/21 00:49:47;;;;;;;10.00;4.40;;;;;;;28.34;42.65;101538.34;4979955;28;20030;-66
2022/07/21 00:52:12;;;;;;;5.95;3.90;;;;;;;28.27;43.43;101530.16;5013602;28;20034;-66
2022/07/21 00:54:38;;;;;;;6.03;4.18;;;;;;;28.27;43.58;101530.16;5013057;28;20053;-66
2022/07/21 00:57:03;;;;;;;6.95;4.55;;;;;;;28.26;43.08;101542.25;4996545;28;20030;-66
2022/07/21 00:59:30;;;;;;;6.72;4.50;;;;;;;28.24;43.12;101540.78;5012502;28;20029;-66
2022/07/21 01:01:55;;;;;;;6.75;4.70;;;;;;;28.22;43.09;101543.78;5012609;28;20103;-66
2022/07/21 01:04:20;;;;;;;6.35;4.68;;;;;;;28.22;43.10;101543.78;5012484;28;20049;-67
2022/07/21 01:06:46;;;;;;;7.32;4.05;;;;;;;28.20;43.79;101550.56;5013619;28;20036;-67
2022/07/21 01:09:12;;;;;;;6.32;4.00;;;;;;;28.19;42.97;101544.25;5013570;28;20510;-66
2022/07/21 01:11:38;;;;;;;7.13;5.20;;;;;;;28.18;43.85;101556.31;4995840;28;20476;-67
2022/07/21 01:14:03;;;;;;;6.25;4.28;;;;;;;28.18;43.83;101553.56;5012256;28;20109;-66
2022/07/21 01:16:28;;;;;;;4.80;4.30;;;;;;;28.18;42.82;101552.72;4995865;28;20033;-66
2022/07/21 01:18:54;;;;;;;5.32;3.78;;;;;;;28.18;43.38;101541.69;5012299;28;20113;-67
2022/07/21 01:21:27;;;;;;;6.43;4.25;;;;;;;28.16;43.67;101544.69;5013439;28;20029;-67
2022/07/21 01:23:52;;;;;;;;;;;;;;;28.17;43.18;101540.84;5012686;28;20038;-67
2022/07/21 01:26:17;;;;;;;6.63;4.75;;;;;;;28.16;43.52;101535.56;5012591;28;19909;-67
2022/07/21 01:28:43;;;;;;;5.75;3.97;;;;;;;28.15;43.03;101526.47;5012291;28;20430;-67
2022/07/21 01:31:08;;;;;;;4.63;3.65;;;;;;;28.13;43.68;101533.28;5012135;28;20126;-67
2022/07/21 01:33:34;;;;;;;7.15;4.20;;;;;;;28.07;43.71;101529.50;5012115;28;20101;-67
2022/07/21 01:35:59;;;;;;;6.18;4.35;;;;;;;28.06;43.68;101526.97;5012993;28;20034;-67
2022/07/21 01:43:52;;;;;;;7.50;4.75;;;;;;;27.96;43.18;101526.63;5016126;28;20507;-67
2022/07/21 01:46:17;;;;;;;7.68;3.95;;;;;;;27.92;43.62;101526.22;4999449;28;20034;-67
2022/07/21 01:48:44;;;;;;;6.50;4.35;;;;;;;27.92;44.08;101526.22;5016036;28;20076;-67
2022/07/21 01:51:09;;;;;;;5.97;4.57;;;;;;;27.89;43.88;101521.16;5015867;28;20403;-67
2022/07/21 01:53:35;;;;;;;7.85;4.53;;;;;;;27.87;43.64;101516.94;5015747;28;20033;-67
2022/07/21 01:56:00;;;;;;;5.43;3.92;;;;;;;27.84;43.95;101518.25;5016933;28;20026;-66
2022/07/21 01:58:26;;;;;;;9.95;5.13;;;;;;;27.84;44.36;101523.75;5015810;28;20057;-66
2022/07/21 02:00:51;;;;;;;6.70;4.47;;;;;;;27.83;44.31;101516.59;4999360;28;20128;-66
2022/07/21 02:03:17;;;;;;;8.02;5.03;;;;;;;27.84;44.08;101507.22;5015623;28;20058;-67
2022/07/21 02:05:42;;;;;;;7.50;4.70;;;;;;;27.85;43.81;101516.34;5016776;28;20502;-67
2022/07/21 02:08:07;;;;;;;6.93;4.97;;;;;;;27.84;44.23;101509.13;5014952;28;20034;-66
2022/07/21 02:10:35;;;;;;;7.13;4.63;;;;;;;27.81;43.76;101504.94;5015430;28;20117;-66
2022/07/21 02:13:02;;;;;;;8.35;4.88;;;;;;;27.78;43.55;101513.63;4999258;28;20056;-67
2022/07/21 02:15:28;;;;;;;8.45;4.80;;;;;;;27.77;44.43;101522.97;5015207;28;20080;-66
2022/07/21 02:17:53;;;;;;;7.03;4.93;;;;;;;27.78;44.54;101530.16;4999202;28;20061;-66
2022/07/21 02:20:18;;;;;;;8.57;5.10;;;;;;;27.81;44.26;101537.13;5016602;28;20037;-67
2022/07/21 02:22:45;;;;;;;7.53;5.00;;;;;;;27.81;44.73;101532.47;5016532;28;20022;-66
2022/07/21 02:25:10;;;;;;;5.93;4.38;;;;;;;27.82;44.60;101536.06;5015221;28;20427;-66
2022/07/21 02:27:36;;;;;;;7.28;4.80;;;;;;;27.82;44.54;101528.66;5014966;28;20021;-66
2022/07/21 02:30:01;;;;;;;8.80;4.93;;;;;;;27.84;44.70;101529.25;5016390;28;20108;-66
2022/07/21 02:32:26;;;;;;;7.28;5.82;;;;;;;27.85;44.23;101530.13;5015012;28;20037;-67
2022/07/21 02:34:52;;;;;;;8.18;4.82;;;;;;;27.86;43.91;101529.06;5014985;28;20030;-66
2022/07/21 02:37:17;;;;;;;8.48;5.18;;;;;;;27.83;44.68;101530.34;5016068;28;20060;-66
2022/07/21 02:39:43;;;;;;;6.25;5.00;;;;;;;27.79;44.49;101526.34;5016467;28;20468;-68
2022/07/21 02:42:09;;;;;;;6.65;4.95;;;;;;;27.74;44.19;101526.19;4998572;28;20080;-66
2022/07/21 02:44:35;;;;;;;8.18;5.22;;;;;;;27.74;44.19;101528.94;5014680;28;20029;-66
2022/07/21 02:47:01;;;;;;;6.10;4.85;;;;;;;27.71;44.75;101526.63;4998323;28;20509;-66
2022/07/21 02:49:26;;;;;;;9.27;5.07;;;;;;;27.67;44.54;101522.63;5015972;28;20060;-67
2022/07/21 02:51:52;;;;;;;6.07;4.68;;;;;;;27.69;43.90;101517.75;4998325;28;20164;-66
2022/07/21 02:54:17;;;;;;;7.72;5.32;;;;;;;27.65;44.72;101520.13;5014801;28;20049;-66
2022/07/21 02:56:42;;;;;;;9.23;5.20;;;;;;;27.63;44.33;101521.41;5014795;28;20037;-66
2022/07/21 02:59:08;;;;;;;7.55;5.32;;;;;;;27.57;44.97;101514.88;5014457;28;20065;-66
2022/07/21 03:01:33;;;;;;;9.00;4.88;;;;;;;27.53;44.76;101515.53;4998426;28;20084;-65
2022/07/21 03:03:58;;;;;;;10.30;5.93;;;;;;;27.50;44.51;101513.25;5014461;28;20125;-66
2022/07/21 03:06:24;;;;;;;7.57;5.47;;;;;;;27.47;45.15;101505.44;5014594;28;20026;-67
2022/07/21 03:08:49;;;;;;;8.27;6.05;;;;;;;27.44;45.17;101512.25;4998007;28;20437;-66
2022/07/21 03:11:14;;;;;;;8.10;6.10;;;;;;;27.48;44.59;101509.88;5014319;28;20022;-66
2022/07/21 03:13:40;;;;;;;8.27;5.88;;;;;;;27.47;45.09;101519.22;4997882;28;20145;-66
2022/07/21 03:16:05;;;;;;;7.13;5.25;;;;;;;27.47;44.58;101524.72;4997866;28;20034;-66
2022/07/21 03:18:30;;;;;;;6.93;5.45;;;;;;;27.46;44.46;101529.38;4981958;28;20107;-66
2022/07/21 03:20:56;;;;;;;12.63;5.35;;;;;;;27.46;44.77;101523.88;4997814;28;20041;-66
2022/07/21 03:23:21;;;;;;;12.15;5.85;;;;;;;27.46;45.13;101520.28;5013877;28;20506;-67
2022/07/21 03:25:47;;;;;;;8.80;6.53;;;;;;;27.44;44.90;101522.41;5014151;28;20030;-66
2022/07/21 03:28:12;;;;;;;7.07;5.03;;;;;;;27.39;45.05;101520.28;5014070;28;20141;-66
2022/07/21 03:30:38;;;;;;;7.57;5.55;;;;;;;27.41;44.88;101528.34;5015140;28;20105;-67
2022/07/21 03:33:04;;;;;;;7.38;5.10;;;;;;;27.39;45.35;101523.03;5013698;28;20045;-66
2022/07/21 03:35:29;;;;;;;6.97;5.28;;;;;;;27.41;45.60;101533.88;5013893;28;20462;-66
2022/07/21 03:37:57;;;;;;;10.98;5.80;;;;;;;27.42;45.62;101530.03;5013885;28;20062;-66
2022/07/21 03:40:25;;;;;;;9.93;6.20;;;;;;;27.38;45.53;101528.75;5014905;28;20022;-67
2022/07/21 03:42:51;;;;;;;8.45;5.80;;;;;;;27.35;45.36;101523.69;5013706;28;20427;-66
2022/07/21 03:45:17;;;;;;;8.20;5.38;;;;;;;27.36;45.46;101522.66;5013600;28;20372;-66
2022/07/21 03:47:42;;;;;;;9.07;6.30;;;;;;;27.38;45.42;101523.25;5013533;28;20032;-66
2022/07/21 03:50:08;;;;;;;13.95;5.88;;;;;;;27.40;45.77;101521.13;5013529;28;20032;-66
2022/07/21 03:52:33;;;;;;;10.68;5.68;;;;;;;27.39;45.24;101519.41;4997075;28;20057;-67
2022/07/21 03:55:08;;;;;;;9.30;5.03;;;;;;;27.39;45.32;101516.66;5013402;28;20029;-66
2022/07/21 03:57:46;;;;;;;8.82;5.70;;;;;;;27.38;45.70;101517.75;5013271;28;20125;-66
2022/07/21 04:00:14;;;;;;;9.55;6.20;;;;;;;27.38;45.15;101518.59;4997475;28;20042;-66
2022/07/21 04:02:42;;;;;;;14.35;6.47;;;;;;;27.39;45.37;101524.94;5013340;28;20025;-66
2022/07/21 04:05:10;;;;;;;9.88;5.95;;;;;;;27.35;45.26;101520.94;5013329;28;20577;-66
2022/07/21 04:07:35;;;;;;;9.55;5.68;;;;;;;27.34;45.49;101519.25;5013494;28;20084;-66
2022/07/21 04:10:00;;;;;;;8.43;5.97;;;;;;;27.35;45.61;101523.69;5013379;28;20484;-66
2022/07/21 04:12:27;;;;;;;10.18;5.93;;;;;;;27.34;45.82;101513.75;5029568;28;20037;-66
2022/07/21 04:14:53;;;;;;;9.82;5.78;;;;;;;27.31;45.23;101509.53;5013081;28;20028;-66
2022/07/21 04:17:18;;;;;;;9.10;5.45;;;;;;;27.32;45.42;101510.38;4997149;28;20034;-66
2022/07/21 04:19:43;;;;;;;7.80;5.68;;;;;;;27.34;45.45;101511.00;5013173;28;20030;-66
2022/07/21 04:22:09;;;;;;;10.70;5.93;;;;;;;27.40;45.95;101510.13;4996591;28;20032;-66
2022/07/21 04:24:34;;;;;;;6.90;5.47;;;;;;;27.38;45.26;101506.75;5013149;28;20539;-66
2022/07/21 04:26:59;;;;;;;9.60;6.15;;;;;;;27.35;45.19;101507.19;4980204;28;20562;-66
2022/07/21 04:29:25;;;;;;;8.48;5.40;;;;;;;27.38;45.53;101506.75;4996452;28;20030;-67
2022/07/21 04:31:50;;;;;;;8.70;5.35;;;;;;;27.40;45.08;101504.59;5012819;28;20124;-66
2022/07/21 04:34:15;;;;;;;9.50;5.60;;;;;;;27.39;45.13;101503.75;5014294;28;20165;-66
2022/07/21 04:36:41;;;;;;;11.20;5.55;;;;;;;27.43;45.04;101509.69;5013815;28;20072;-66
2022/07/21 04:39:06;;;;;;;10.20;5.95;;;;;;;27.44;45.46;101497.63;5014045;28;20026;-66
2022/07/21 04:41:32;;;;;;;11.45;5.15;;;;;;;27.47;45.83;101499.94;5012882;28;20033;-66
2022/07/21 04:44:00;;;;;;;7.65;5.65;;;;;;;27.49;45.86;101503.31;5013145;28;20034;-66
2022/07/21 04:46:25;;;;;;;10.75;6.03;;;;;;;27.53;45.45;101504.53;5013807;28;20037;-66
2022/07/21 04:48:51;;;;;;;11.73;6.13;;;;;;;27.58;45.33;101507.47;5012548;28;20033;-66
2022/07/21 04:51:16;;;;;;;9.38;5.85;;;;;;;27.61;45.51;101507.03;5012638;28;20032;-66
2022/07/21 04:53:41;;;;;;;8.05;5.75;;;;;;;27.57;45.38;101511.28;5013759;28;20034;-66
2022/07/21 04:56:07;;;;;;;10.77;6.20;;;;;;;27.57;45.17;101498.38;5012885;28;20053;-66
2022/07/21 04:58:32;;;;;;;8.10;6.07;;;;;;;27.52;45.06;101500.97;5012557;28;20037;-66
2022/07/21 05:00:57;;;;;;;9.15;5.82;;;;;;;27.52;45.14;101511.13;4996127;28;20368;-66
2022/07/21 05:03:23;;;;;;;12.63;6.45;;;;;;;27.50;45.45;101503.06;5012771;28;20026;-66
2022/07/21 05:05:48;;;;;;;10.15;6.32;;;;;;;27.49;45.53;101508.81;5013107;28;20040;-67
2022/07/21 05:08:13;;;;;;;8.25;5.60;;;;;;;27.51;45.65;101512.19;5013748;28;20534;-66
2022/07/21 05:10:39;;;;;;;9.00;5.97;;;;;;;27.56;45.59;101515.09;5013435;28;20071;-66
2022/07/21 05:13:04;;;;;;;10.05;6.13;;;;;;;27.61;45.55;101518.03;5013497;28;20037;-66
2022/07/21 05:15:29;;;;;;;11.13;5.88;;;;;;;27.58;46.17;101513.81;5012262;28;20034;-67
2022/07/21 05:17:55;;;;;;;8.13;5.30;;;;;;;27.59;45.39;101520.16;5012238;28;20030;-67
2022/07/21 05:20:20;;;;;;;8.02;4.97;;;;;;;27.60;45.39;101516.34;5012288;28;20404;-66
2022/07/21 05:22:46;;;;;;;8.95;5.30;;;;;;;27.60;46.11;101513.59;5007276;28;20030;-66
2022/07/21 05:25:11;;;;;;;7.85;5.22;;;;;;;27.62;45.97;101514.22;5001376;28;20029;-66
2022/07/21 05:27:37;;;;;;;8.50;4.50;;;;;;;27.62;45.62;101512.31;5001335;28;20022;-66
2022/07/21 05:30:03;;;;;;;11.52;5.45;;;;;;;27.64;45.50;101517.56;5002248;28;20105;-66
2022/07/21 05:32:28;;;;;;;7.65;5.13;;;;;;;27.67;45.81;101515.22;5008350;28;20164;-67
2022/07/21 05:34:54;;;;;;;11.88;5.18;;;;;;;27.70;44.88;101522.19;5012616;28;20116;-68
2022/07/21 05:37:19;;;;;;;8.82;4.68;;;;;;;27.68;45.60;101525.19;5011951;28;20062;-66
2022/07/21 05:39:45;;;;;;;7.75;4.85;;;;;;;27.71;45.28;101524.72;5011314;28;20496;-67
2022/07/21 05:42:10;;;;;;;9.60;4.93;;;;;;;27.70;45.34;101538.69;4979583;28;20033;-67
2022/07/21 05:44:35;;;;;;;7.70;4.72;;;;;;;27.67;45.63;101528.13;4995669;28;20112;-67
2022/07/21 05:47:01;;;;;;;7.85;4.70;;;;;;;27.72;45.49;101533.84;5012146;28;20037;-68
2022/07/21 05:49:26;;;;;;;7.45;5.07;;;;;;;27.67;45.39;101523.47;5011954;28;20026;-65
2022/07/21 05:51:52;;;;;;;7.57;4.25;;;;;;;27.71;45.17;101529.38;4995625;28;20513;-65
2022/07/21 05:54:17;;;;;;;9.48;5.07;;;;;;;27.75;45.00;101527.84;5013248;28;20041;-66
2022/07/21 05:56:42;;;;;;;8.52;4.55;;;;;;;27.76;44.96;101526.78;5013142;28;20400;-66
2022/07/21 05:59:08;;;;;;;7.90;4.57;;;;;;;27.78;44.96;101524.66;4995562;28;20029;-66
2022/07/21 06:01:33;;;;;;;8.98;4.38;;;;;;;27.80;45.06;101528.03;4995754;28;20033;-66
2022/07/21 06:03:59;;;;;;;9.23;4.65;;;;;;;27.84;45.23;101529.25;5011971;28;20092;-66
2022/07/21 06:06:24;;;;;;;9.00;4.82;;;;;;;27.84;44.77;101523.75;5011689;28;20026;-67
2022/07/21 06:08:50;;;;;;;9.88;4.80;;;;;;;27.87;45.56;101528.81;5013035;28;20440;-66
2022/07/21 06:11:18;;;;;;;12.93;5.55;;;;;;;27.90;44.76;101527.50;5012881;28;20057;-67
2022/07/21 06:13:44;;;;;;;7.47;4.68;;;;;;;27.88;44.39;101518.66;5012943;28;20037;-67
2022/07/21 06:16:10;;;;;;;8.50;5.70;;;;;;;27.91;45.11;101524.56;5011737;28;20289;-66
2022/07/21 06:18:35;;;;;;;7.40;4.80;;;;;;;27.93;45.31;101532.56;5011738;28;20072;-66
2022/07/21 06:21:00;;;;;;;11.35;4.95;;;;;;;27.89;44.90;101532.19;5011704;28;20029;-66
2022/07/21 06:23:26;;;;;;;10.02;5.18;;;;;;;27.99;44.88;101548.22;5014463;28;20099;-66
2022/07/21 06:25:52;;;;;;;9.35;4.65;;;;;;;28.01;44.79;101546.91;4998812;28;20034;-66
2022/07/21 06:28:18;;;;;;;11.70;4.97;;;;;;;28.02;44.91;101540.34;4998837;28;20033;-67
2022/07/21 06:30:44;;;;;;;6.80;4.68;;;;;;;28.06;44.90;101549.00;4982532;28;20125;-67
2022/07/21 06:33:09;;;;;;;6.57;4.80;;;;;;;28.06;45.08;101549.84;5015237;28;20526;-67
2022/07/21 06:35:36;;;;;;;9.05;4.97;;;;;;;28.06;44.98;101555.38;5016287;28;20030;-67
2022/07/21 06:38:02;;;;;;;10.57;5.13;;;;;;;28.05;45.08;101541.84;4998558;28;20050;-66
2022/07/21 06:40:27;;;;;;;11.27;5.38;;;;;;;28.06;45.51;101555.38;4998938;28;20045;-66
2022/07/21 06:42:53;;;;;;;11.70;5.60;;;;;;;28.09;45.18;101551.31;5014827;28;20068;-67
2022/07/21 06:45:18;;;;;;;9.68;5.22;;;;;;;28.13;45.32;101550.66;5016037;28;20100;-67
2022/07/21 06:47:43;;;;;;;8.40;4.57;;;;;;;28.17;45.10;101557.38;4998349;28;20451;-66
2022/07/21 06:50:09;;;;;;;9.50;4.22;;;;;;;28.24;44.38;101551.81;4998227;28;20072;-67
2022/07/21 06:52:35;;;;;;;8.93;5.22;;;;;;;28.28;44.23;101547.53;5014556;28;20029;-67
2022/07/21 06:55:02;;;;;;;6.82;4.25;;;;;;;28.38;44.38;101558.03;4998199;28;20476;-66
2022/07/21 06:57:27;;;;;;;7.65;4.97;;;;;;;28.46;44.00;101552.22;5015866;28;20446;-67
2022/07/21 06:59:52;;;;;;;12.57;4.95;;;;;;;28.51;44.17;101557.88;4998141;28;20029;-67
2022/07/21 07:02:18;;;;;;;9.73;5.18;;;;;;;28.60;44.28;101556.50;4998392;28;20022;-68
2022/07/21 07:04:43;;;;;;;10.55;5.45;;;;;;;28.67;44.49;101560.88;4998207;28;20392;-67
2022/07/21 07:07:09;;;;;;;9.45;4.65;;;;;;;28.70;44.77;101562.38;5014351;28;20034;-67
2022/07/21 07:09:35;;;;;;;10.52;4.93;;;;;;;28.67;44.42;101566.41;5014396;28;20025;-67
2022/07/21 07:12:03;;;;;;;10.10;5.32;;;;;;;28.68;44.13;101570.84;4997874;28;20187;-66
2022/07/21 07:14:29;;;;;;;8.65;5.55;;;;;;;28.70;44.61;101567.88;5014255;28;20108;-66
2022/07/21 07:16:55;;;;;;;14.77;5.28;;;;;;;28.75;43.77;101565.28;5014208;28;20026;-67
2022/07/21 07:19:20;;;;;;;13.82;5.32;;;;;;;28.84;43.68;101574.91;5015387;28;20374;-67
2022/07/21 07:21:46;;;;;;;12.00;6.20;;;;;;;28.97;43.84;101574.75;5015471;28;20488;-67
2022/07/21 07:24:11;;;;;;;9.45;5.22;;;;;;;29.13;43.33;101565.81;5014091;28;20030;-67
2022/07/21 07:26:36;;;;;;;9.82;5.20;;;;;;;29.17;42.50;101569.81;4981465;28;20041;-67
2022/07/21 07:29:02;;;;;;;8.70;4.18;;;;;;;29.18;42.83;101565.97;5015289;28;20097;-67
2022/07/21 07:31:28;;;;;;;9.15;4.90;;;;;;;29.16;43.18;101554.31;4997519;28;20022;-67
2022/07/21 07:33:56;;;;;;;10.00;4.70;;;;;;;29.14;43.09;101559.25;5012801;28;20049;-67
2022/07/21 07:36:22;;;;;;;7.18;5.10;;;;;;;29.16;43.03;101554.31;4997938;28;20030;-67
2022/07/21 07:38:48;;;;;;;7.70;4.35;;;;;;;29.25;42.85;101561.25;5013783;28;20057;-67
2022/07/21 07:41:13;;;;;;;8.30;4.55;;;;;;;29.35;42.38;101558.75;5013798;28;20480;-67
2022/07/21 07:43:39;;;;;;;11.18;5.35;;;;;;;29.44;42.16;101554.59;4997337;28;20384;-66
2022/07/21 07:46:05;;;;;;;10.45;5.07;;;;;;;29.54;42.13;101559.50;4997376;28;20033;-68
2022/07/21 07:48:31;;;;;;;7.65;4.38;;;;;;;29.61;42.34;101545.59;4997241;28;20063;-67
2022/07/21 07:50:56;;;;;;;10.23;4.88;;;;;;;29.71;42.06;101559.66;4997547;28;20060;-67
2022/07/21 07:53:22;;;;;;;8.13;4.60;;;;;;;29.80;41.96;101555.53;5013497;28;20439;-66
2022/07/21 07:55:47;;;;;;;10.38;4.35;;;;;;;30.04;41.27;101559.16;5013513;28;20028;-67
2022/07/21 07:58:12;;;;;;;8.27;4.45;;;;;;;30.03;41.93;101558.31;5013544;28;20116;-67
2022/07/21 08:00:39;;;;;;;10.55;4.18;;;;;;;29.94;42.09;101548.69;5013523;28;20053;-66
2022/07/21 08:03:05;;;;;;;7.32;4.55;;;;;;;29.90;42.26;101550.25;5013485;28;20496;-67
2022/07/21 08:05:30;;;;;;;9.82;5.07;;;;;;;29.82;41.54;101545.06;5014618;28;20026;-67
2022/07/21 08:07:56;;;;;;;9.07;4.75;;;;;;;29.74;41.82;101548.16;5013262;28;20061;-66
2022/07/21 08:10:21;;;;;;;9.07;5.22;;;;;;;29.70;42.45;101558.00;4996915;28;20034;-67
2022/07/21 08:12:46;;;;;;;8.73;4.82;;;;;;;29.62;42.60;101561.94;5013102;28;20036;-67
2022/07/21 08:15:12;;;;;;;10.23;4.40;;;;;;;29.50;42.46;101563.00;4996952;28;20545;-67
2022/07/21 08:17:37;;;;;;;8.68;4.95;;;;;;;29.39;41.82;101556.38;5013159;28;20022;-67
2022/07/21 08:20:04;;;;;;;11.23;4.85;;;;;;;29.24;42.12;101561.47;4996806;28;20036;-67
2022/07/21 08:22:30;;;;;;;9.32;4.82;;;;;;;29.14;42.53;101563.91;5013098;28;20030;-67
2022/07/21 08:24:55;;;;;;;10.13;4.88;;;;;;;29.04;42.94;101575.50;5014214;28;20026;-67
2022/07/21 08:27:20;;;;;;;7.63;4.95;;;;;;;28.95;42.84;101565.03;5014094;28;20063;-67
2022/07/21 08:29:46;;;;;;;10.15;5.53;;;;;;;28.86;43.07;101572.78;5012906;28;20026;-67
2022/07/21 08:32:11;;;;;;;8.30;5.25;;;;;;;28.71;43.29;101569.56;4996403;28;20033;-67
2022/07/21 08:34:37;;;;;;;10.35;4.95;;;;;;;28.57;43.16;101571.59;4996437;28;20068;-67
2022/07/21 08:37:02;;;;;;;8.55;5.10;;;;;;;28.51;43.90;101574.41;4996227;28;20439;-67
2022/07/21 08:39:28;;;;;;;12.10;5.85;;;;;;;28.46;44.03;101585.28;5012858;28;20057;-67
2022/07/21 08:41:53;;;;;;;13.32;5.60;;;;;;;28.41;44.00;101585.13;4996320;28;20040;-66
2022/07/21 08:44:23;;;;;;;9.25;5.55;;;;;;;28.39;44.49;101581.78;5012542;28;20034;-66
2022/07/21 08:46:49;;;;;;;10.15;5.22;;;;;;;28.35;44.38;101586.03;5012474;28;20104;-66
2022/07/21 08:49:15;;;;;;;8.57;5.20;;;;;;;28.38;44.40;101577.31;5012428;28;20388;-66
2022/07/21 08:51:40;;;;;;;11.85;5.57;;;;;;;28.39;44.16;101590.03;5012540;28;20026;-66
2022/07/21 08:54:06;;;;;;;11.30;5.53;;;;;;;28.42;44.62;101575.81;4979982;28;20113;-67
2022/07/21 08:56:31;;;;;;;9.23;5.25;;;;;;;28.50;44.31;101579.13;4996175;28;20029;-68
2022/07/21 08:58:57;;;;;;;10.77;5.25;;;;;;;28.59;44.35;101587.91;4979968;28;20029;-66
2022/07/21 09:01:23;;;;;;;13.45;5.45;;;;;;;28.61;44.72;101592.13;4996184;28;20395;-67
2022/07/21 09:03:50;;;;;;;10.50;5.20;;;;;;;28.57;44.89;101581.78;5013815;28;20022;-67
2022/07/21 09:06:16;;;;;;;10.30;4.97;;;;;;;28.55;45.04;101593.06;5012336;28;20125;-67
2022/07/21 09:08:44;;;;;;;12.85;5.68;;;;;;;28.52;45.28;101589.91;5012312;28;20034;-67
2022/07/21 09:11:15;;;;;;;13.73;5.57;;;;;;;28.47;45.48;101585.06;5012495;28;20049;-66
2022/07/21 09:13:41;;;;;;;12.68;6.68;;;;;;;28.45;45.13;101594.66;5013412;28;20102;-67
2022/07/21 09:16:07;;;;;;;9.98;5.50;;;;;;;28.37;45.59;101590.25;4995853;28;20032;-66
2022/07/21 09:18:33;;;;;;;10.80;5.60;;;;;;;28.26;46.31;101589.09;5012276;28;20034;-67
2022/07/21 09:21:00;;;;;;;9.38;6.05;;;;;;;28.18;45.49;101596.81;5012261;28;20026;-66
2022/07/21 09:23:25;;;;;;;10.25;6.20;;;;;;;28.08;46.58;101590.97;5012216;28;20026;-66
2022/07/21 09:25:53;;;;;;;11.40;5.28;;;;;;;27.99;46.42;101595.88;4995877;28;20168;-66
2022/07/21 09:28:24;;;;;;;9.30;6.03;;;;;;;27.88;46.58;101596.63;5012190;28;20021;-66
2022/07/21 09:30:54;;;;;;;10.05;5.90;;;;;;;27.78;46.68;101599.00;4995770;28;20017;-66
2022/07/21 09:33:21;;;;;;;8.00;5.38;;;;;;;27.69;46.56;101592.13;5013240;28;20034;-66
2022/07/21 09:36:08;;;;;;;10.85;5.55;;;;;;;27.62;46.84;101603.16;5012202;28;20022;-66
2022/07/21 09:38:36;;;;;;;10.70;6.05;;;;;;;27.53;46.88;101600.88;4995706;28;20042;-65
2022/07/21 09:41:10;;;;;;;8.40;5.68;;;;;;;27.49;47.37;101605.16;4995669;28;20510;-66
2022/07/21 09:43:41;;;;;;;11.18;6.47;;;;;;;27.44;47.69;101607.75;5013463;28;20480;-66
2022/07/21 09:46:18;;;;;;;8.40;6.28;;;;;;;27.41;47.65;101605.44;5009596;28;20029;-65
2022/07/21 09:48:49;;;;;;;10.90;6.75;;;;;;;27.39;47.22;101604.75;5027581;28;20500;-65
2022/07/21 09:51:29;;;;;;;10.05;6.55;;;;;;;27.39;47.73;101602.00;4995511;28;20391;-66
2022/07/21 09:54:00;;;;;;;10.98;6.97;;;;;;;27.36;47.80;101603.28;4995542;28;20037;-66
2022/07/21 09:56:31;;;;;;;12.38;7.35;;;;;;;27.41;47.47;101610.94;5012212;28;20112;-66
2022/07/21 09:58:59;;;;;;;10.98;5.68;;;;;;;27.41;48.26;101599.91;5015586;28;20029;-66
2022/07/21 10:01:26;;;;;;;10.38;6.13;;;;;;;27.41;48.10;101599.91;5032445;28;20036;-67
2022/07/21 10:03:52;;;;;;;8.63;5.35;;;;;;;27.39;47.70;101602.84;5016814;28;20435;-65
2022/07/21 10:06:20;;;;;;;10.70;6.60;;;;;;;27.40;47.66;101603.69;5015705;28;20391;-65
2022/07/21 10:08:45;;;;;;;8.15;5.20;;;;;;;27.39;48.31;101613.00;5016918;28;20026;-65
2022/07/21 10:11:12;;;;;;;7.95;5.60;;;;;;;27.33;48.19;101613.91;4999478;28;20033;-65
2022/07/21 10:13:39;;;;;;;5.63;3.97;;;;;;;27.26;48.01;101618.59;4999001;28;20034;-65
2022/07/21 10:16:04;;;;;;;6.60;3.90;;;;;;;27.23;48.66;101613.50;5015336;28;20022;-66
2022/07/21 10:18:37;;;;;;;5.85;3.45;;;;;;;27.22;48.80;101622.84;5015423;28;20030;-66
2022/07/21 10:21:11;;;;;;;5.55;3.60;;;;;;;27.23;48.75;101619.03;5015346;28;20026;-66
2022/07/21 10:23:41;;;;;;;6.32;3.70;;;;;;;27.24;48.51;101623.47;5015376;28;20112;-66
2022/07/21 10:26:08;;;;;;;5.00;3.30;;;;;;;27.25;48.84;101622.41;5015253;28;20018;-66
2022/07/21 10:28:33;;;;;;;6.47;3.78;;;;;;;27.22;48.47;101623.69;5016353;28;20032;-66
2022/07/21 10:30:59;;;;;;;4.68;3.90;;;;;;;27.17;48.57;101626.25;5016341;28;20101;-65
2022/07/21 10:33:43;;;;;;;7.10;4.25;;;;;;;27.07;49.33;101623.13;5015162;28;20041;-69
2022/07/21 10:36:09;;;;;;;8.43;4.10;;;;;;;26.92;48.65;101628.88;5014998;28;20034;-66
2022/07/21 10:38:35;;;;;;;7.57;4.35;;;;;;;26.82;49.74;101630.41;5031480;28;20507;-65
2022/07/21 10:41:03;;;;;;;6.07;5.00;;;;;;;26.76;49.56;101634.84;5014975;28;20041;-65
2022/07/21 10:43:29;;;;;;;10.77;4.90;;;;;;;26.72;49.54;101633.56;5016132;28;20058;-65
2022/07/21 10:45:55;;;;;;;7.35;4.88;;;;;;;26.69;50.07;101634.00;5015906;28;20101;-66
2022/07/21 10:48:42;;;;;;;8.70;5.63;;;;;;;26.58;49.86;101631.91;5014643;28;20462;-65
2022/07/21 10:51:08;;;;;;;7.70;5.20;;;;;;;26.49;50.30;101633.22;5014772;28;20049;-65
2022/07/21 10:53:34;;;;;;;9.65;5.28;;;;;;;26.43;50.45;101634.91;5015770;28;20037;-65
2022/07/21 10:56:00;;;;;;;12.43;5.85;;;;;;;26.42;50.43;101637.84;5014800;28;20038;-65
2022/07/21 10:58:31;;;;;;;9.48;6.10;;;;;;;26.44;50.76;101641.22;5014685;28;20026;-65
2022/07/21 11:01:06;;;;;;;14.57;6.07;;;;;;;26.41;50.95;101641.69;5014585;28;20125;-65
2022/07/21 11:03:40;;;;;;;8.40;4.97;;;;;;;26.35;50.61;101643.38;5014596;28;20057;-66
2022/07/21 11:06:05;;;;;;;8.38;5.07;;;;;;;26.28;50.63;101641.66;5031029;28;20025;-66
2022/07/21 11:08:34;;;;;;;12.15;6.00;;;;;;;26.21;50.95;101635.34;5014190;28;20026;-66
2022/07/21 11:11:08;;;;;;;11.60;6.15;;;;;;;26.19;51.30;101638.28;5015691;28;20065;-65
2022/07/21 11:14:04;;;;;;;10.35;6.22;;;;;;;26.18;50.93;101641.25;5014218;28;20026;-65
2022/07/21 11:16:56;;;;;;;9.35;5.57;;;;;;;26.18;51.10;101635.75;5014306;28;20044;-65
2022/07/21 11:19:35;;;;;;;9.13;5.80;;;;;;;26.17;51.58;101647.81;5015492;28;20157;-66
2022/07/21 11:22:29;;;;;;;8.70;5.90;;;;;;;26.17;51.66;101642.31;5015424;28;20097;-65
2022/07/21 11:25:04;;;;;;;9.20;5.32;;;;;;;26.14;51.44;101650.97;5015341;28;20025;-65
2022/07/21 11:27:31;;;;;;;7.75;4.45;;;;;;;26.13;51.79;101654.75;4997640;28;20061;-64